createdAt,value
2022-08-03T00:01:09.409Z,3.65
2022-08-03T00:04:45.980Z,3.28
2022-08-03T00:08:11.182Z,2.95
2022-08-03T00:11:17.370Z,2.85
2022-08-03T00:21:10.980Z,2.95
2022-08-03T00:24:20.925Z,2.53
2022-08-03T00:27:22.511Z,2.95
2022-08-03T00:30:24.076Z,2.53
2022-08-03T00:36:47.749Z,2.70
2022-08-03T00:39:49.216Z,2.90
2022-08-03T00:42:54.026Z,2.78
2022-08-03T00:45:55.580Z,2.73
2022-08-03T00:48:57.137Z,2.70
2022-08-03T00:52:00.518Z,2.50
2022-08-03T00:55:16.287Z,2.42
2022-08-03T00:58:23.306Z,2.53
2022-08-03T01:01:24.874Z,2.60
2022-08-03T01:04:37.396Z,2.08
2022-08-03T01:08:01.961Z,2.30
2022-08-03T01:11:18.981Z,2.60
2022-08-03T01:15:02.647Z,2.70
2022-08-03T01:18:22.442Z,2.67
2022-08-03T01:21:33.083Z,2.87
2022-08-03T01:24:55.692Z,2.58
2022-08-03T01:28:48.635Z,2.20
2022-08-03T01:32:54.552Z,2.35
2022-08-03T01:35:41.508Z,2.77
2022-08-03T01:38:49.149Z,2.58
2022-08-03T01:41:56.826Z,2.80
2022-08-03T01:45:00.733Z,3.22
2022-08-03T01:48:03.843Z,2.95
2022-08-03T01:51:07.967Z,3.00
2022-08-03T02:08:27.405Z,2.75
2022-08-03T02:11:32.348Z,2.87
2022-08-03T02:14:51.959Z,2.80
2022-08-03T02:17:54.803Z,3.20
2022-08-03T02:20:57.677Z,2.85
2022-08-03T02:27:51.952Z,2.92
2022-08-03T02:30:55.529Z,3.13
2022-08-03T02:37:45.105Z,3.45
2022-08-03T02:40:57.164Z,3.28
2022-08-03T02:44:51.959Z,3.35
2022-08-03T02:47:59.730Z,3.03
2022-08-03T02:51:03.749Z,3.00
2022-08-03T02:58:21.122Z,3.22
2022-08-03T03:01:25.651Z,3.35
2022-08-03T03:05:51.131Z,3.13
2022-08-03T03:08:18.644Z,2.85
2022-08-03T03:11:23.403Z,3.15
2022-08-03T03:14:43.940Z,3.20
2022-08-03T03:17:46.443Z,3.92
2022-08-03T03:21:04.311Z,3.13
2022-08-03T03:27:42.988Z,3.50
2022-08-03T03:30:52.761Z,3.33
2022-08-03T03:37:20.643Z,3.50
2022-08-03T03:40:22.733Z,3.45
2022-08-03T03:48:03.439Z,3.55
2022-08-03T03:51:05.671Z,3.30
2022-08-03T03:57:43.354Z,3.47
2022-08-03T04:00:45.200Z,3.30
2022-08-03T04:08:00.626Z,4.00
2022-08-03T04:11:11.091Z,3.70
2022-08-03T04:17:59.002Z,3.92
2022-08-03T04:21:07.262Z,5.10
2022-08-03T04:28:29.630Z,4.17
2022-08-03T04:31:29.723Z,3.87
2022-08-03T04:34:53.655Z,4.15
2022-08-03T04:38:00.942Z,3.42
2022-08-03T04:41:03.616Z,3.80
2022-08-03T04:48:58.430Z,3.75
2022-08-03T04:52:22.138Z,4.12
2022-08-03T05:06:54.954Z,4.12
2022-08-03T05:10:01.400Z,4.50
2022-08-03T05:17:45.671Z,4.20
2022-08-03T05:20:47.242Z,4.60
2022-08-03T05:24:31.885Z,4.50
2022-08-03T05:32:08.084Z,4.60
2022-08-03T05:36:00.685Z,4.70
2022-08-03T05:38:35.513Z,4.77
2022-08-03T05:41:42.690Z,4.85
2022-08-03T05:44:44.377Z,5.18
2022-08-03T05:47:49.652Z,4.53
2022-08-03T05:55:02.826Z,4.43
2022-08-03T05:58:45.529Z,4.30
2022-08-03T06:01:49.323Z,4.80
2022-08-03T06:08:51.810Z,4.78
2022-08-03T06:11:53.408Z,4.10
2022-08-03T06:15:05.403Z,4.00
2022-08-03T06:22:31.330Z,4.20
2022-08-03T06:25:33.167Z,3.83
2022-08-03T06:28:52.777Z,5.60
2022-08-03T06:32:15.631Z,3.75
2022-08-03T06:35:19.729Z,4.32
2022-08-03T06:38:21.464Z,4.25
2022-08-03T06:41:44.520Z,4.78
2022-08-03T06:45:20.348Z,3.93
2022-08-03T06:48:27.350Z,4.60
2022-08-03T06:55:32.757Z,4.32
2022-08-03T06:58:40.863Z,4.50
2022-08-03T07:01:44.801Z,4.10
2022-08-03T07:04:54.705Z,4.78
2022-08-03T07:07:59.509Z,4.60
2022-08-03T07:15:00.281Z,4.40
2022-08-03T07:18:05.421Z,4.60
2022-08-03T07:21:09.308Z,5.32
2022-08-03T07:24:46.291Z,4.55
2022-08-03T07:27:53.248Z,4.47
2022-08-03T07:30:58.443Z,4.72
2022-08-03T07:57:22.753Z,5.32
2022-08-03T08:00:25.006Z,5.05
2022-08-03T08:07:29.069Z,4.95
2022-08-03T08:11:16.548Z,5.07
2022-08-03T08:15:20.351Z,5.37
2022-08-03T08:18:43.022Z,5.47
2022-08-03T08:21:52.959Z,5.72
2022-08-03T08:25:01.694Z,5.10
2022-08-03T08:28:31.174Z,5.17
2022-08-03T08:31:25.357Z,5.12
2022-08-03T08:42:58.066Z,4.80
2022-08-03T08:46:22.729Z,5.47
2022-08-03T08:49:29.715Z,4.85
2022-08-03T08:52:33.239Z,5.32
2022-08-03T08:55:58.003Z,5.10
2022-08-03T08:59:01.613Z,4.75
2022-08-03T09:02:05.818Z,4.40
2022-08-03T09:10:01.214Z,4.75
2022-08-03T09:12:44.363Z,4.62
2022-08-03T09:16:00.722Z,4.12
2022-08-03T09:20:03.643Z,4.33
2022-08-03T09:36:40.376Z,4.40
2022-08-03T09:39:42.522Z,4.30
2022-08-03T09:42:57.079Z,4.00
2022-08-03T10:34:47.673Z,3.93
2022-08-03T10:38:16.764Z,4.10
2022-08-03T10:45:41.974Z,3.95
2022-08-03T10:49:20.690Z,3.40
2022-08-03T11:16:14.152Z,3.97
2022-08-03T11:44:47.880Z,3.33
2022-08-03T11:48:56.933Z,3.95
2022-08-03T12:47:29.876Z,3.12
2022-08-03T12:50:56.915Z,3.17
2022-08-03T12:54:09.211Z,3.17
2022-08-03T13:01:04.803Z,3.90
2022-08-03T13:04:46.317Z,3.45
2022-08-03T14:41:00.822Z,2.85
2022-08-03T14:56:00.447Z,3.15
2022-08-03T14:59:55.936Z,3.65
2022-08-03T15:06:40.186Z,3.78
2022-08-03T15:18:00.372Z,3.60
2022-08-03T15:26:29.292Z,3.33
2022-08-03T15:37:46.641Z,2.97
2022-08-03T15:41:14.614Z,3.15
2022-08-03T15:48:36.107Z,2.90
2022-08-03T15:52:02.899Z,3.30
2022-08-03T15:55:50.860Z,2.72
2022-08-03T15:59:13.348Z,3.00
2022-08-03T16:07:30.709Z,2.80
2022-08-03T16:10:51.102Z,3.12
2022-08-03T16:41:53.942Z,3.42
2022-08-03T18:10:05.316Z,3.05
2022-08-03T18:17:55.603Z,3.73
2022-08-03T18:28:06.357Z,3.10
2022-08-03T18:31:59.848Z,3.55
2022-08-03T18:34:53.735Z,4.67
2022-08-03T18:38:10.255Z,3.42
2022-08-03T19:12:44.496Z,3.67
2022-08-03T19:15:51.807Z,4.07
2022-08-03T19:18:57.751Z,3.72
2022-08-03T19:22:00.063Z,4.85
2022-08-03T19:25:01.911Z,4.50
2022-08-03T19:28:06.360Z,3.60
2022-08-03T19:35:51.216Z,3.78
2022-08-03T19:38:59.758Z,4.00
2022-08-03T19:57:49.274Z,3.70
2022-08-03T20:00:55.108Z,4.07
2022-08-03T20:08:26.669Z,3.58
2022-08-03T20:11:29.022Z,3.83
2022-08-03T20:14:51.927Z,3.83
2022-08-03T20:17:58.475Z,4.45
2022-08-03T20:21:09.823Z,4.13
2022-08-03T20:24:40.133Z,3.87
2022-08-03T20:28:07.764Z,4.95
2022-08-03T20:31:09.564Z,4.18
2022-08-03T20:34:30.293Z,4.20
2022-08-03T20:37:51.838Z,3.70
2022-08-03T20:40:53.414Z,4.00
2022-08-03T20:47:50.620Z,3.65
2022-08-03T20:50:53.281Z,3.58
2022-08-03T20:54:45.433Z,3.40
2022-08-03T20:57:51.699Z,3.47
2022-08-03T21:00:54.353Z,3.03
2022-08-03T21:08:08.391Z,3.30
2022-08-03T21:11:16.632Z,3.37
2022-08-03T21:14:51.888Z,3.62
2022-08-03T21:17:56.038Z,3.17
2022-08-03T21:21:00.849Z,3.55
2022-08-03T21:24:45.013Z,3.33
2022-08-03T21:27:48.725Z,3.83
2022-08-03T21:30:51.162Z,3.67
2022-08-03T21:37:50.463Z,3.10
2022-08-03T21:40:52.132Z,3.40
2022-08-03T21:44:44.669Z,3.30
2022-08-03T21:47:47.287Z,3.20
2022-08-03T21:50:50.775Z,3.28
2022-08-03T21:54:50.060Z,3.10
2022-08-03T21:57:58.433Z,3.72
2022-08-03T22:01:03.182Z,3.63
2022-08-03T22:07:49.653Z,3.58
2022-08-03T22:10:53.117Z,3.30
2022-08-03T22:17:53.631Z,3.10
2022-08-03T22:20:57.363Z,3.22
2022-08-03T22:27:53.393Z,2.58
2022-08-03T22:30:55.316Z,3.25
2022-08-03T22:37:48.124Z,3.08
2022-08-03T22:40:49.820Z,3.22
2022-08-03T22:47:46.213Z,2.85
2022-08-03T22:50:48.001Z,2.80
2022-08-03T22:57:56.232Z,3.03
2022-08-03T23:01:05.680Z,3.15
2022-08-03T23:07:44.437Z,3.83
2022-08-03T23:10:47.455Z,3.17
2022-08-03T23:17:57.626Z,3.08
2022-08-03T23:21:02.526Z,2.80
2022-08-03T23:27:45.037Z,2.78
2022-08-03T23:30:49.667Z,3.03
2022-08-03T23:38:04.128Z,2.97
2022-08-03T23:41:18.396Z,2.90
2022-08-03T23:45:06.145Z,2.65
2022-08-03T23:48:08.077Z,2.70
2022-08-03T23:51:18.843Z,2.50
2022-08-03T23:54:48.015Z,2.62
2022-08-03T23:58:02.788Z,2.50
